Time;durP1;ratioP1;P1;durP2;ratioP2;P2;SDS_P1;SDS_P2;PMS_P1;PMS_P2;Temp;Humidity;BMP_temperature;BMP_pressure;BME280_temperature;BME280_humidity;BME280_pressure;Samples;Min_cycle;Max_cycle;Signal;HPM_P1;HPM_P2
2021/06/14 00:02:00;;;;;;;6.07;4.90;;;19.30;88.50;;;;;;5037981;28;20409;-40
2021/06/14 00:04:26;;;;;;;6.68;4.50;;;19.30;88.30;;;;;;5038070;28;20088;-38
2021/06/14 00:06:52;;;;;;;5.93;4.45;;;19.30;88.10;;;;;;5037921;28;20077;-37
2021/06/14 00:09:21;;;;;;;4.78;4.10;;;19.30;88.00;;;;;;5038085;28;20083;-37
2021/06/14 00:11:48;;;;;;;6.20;4.50;;;19.30;87.80;;;;;;5037847;28;20042;-37
2021/06/14 00:14:14;;;;;;;7.38;4.60;;;19.30;88.00;;;;;;5037787;28;20116;-37
2021/06/14 00:16:40;;;;;;;6.28;4.80;;;19.30;88.00;;;;;;5037708;28;20037;-40
2021/06/14 00:19:07;;;;;;;6.40;4.65;;;19.30;88.00;;;;;;5037595;28;20064;-38
2021/06/14 00:21:34;;;;;;;6.07;5.00;;;19.30;88.10;;;;;;5037812;28;20033;-39
2021/06/14 00:24:00;;;;;;;5.43;4.85;;;19.30;88.10;;;;;;5037598;28;20022;-37
2021/06/14 00:26:26;;;;;;;5.90;5.13;;;19.30;88.10;;;;;;5037554;28;20056;-40
2021/06/14 00:28:51;;;;;;;6.00;5.00;;;19.30;88.10;;;;;;5037790;28;20034;-37
2021/06/14 00:31:17;;;;;;;5.63;4.78;;;19.30;88.10;;;;;;5037344;28;20038;-37
2021/06/14 00:33:43;;;;;;;7.53;4.53;;;19.30;88.30;;;;;;5037327;28;20211;-39
2021/06/14 00:36:09;;;;;;;7.03;5.65;;;19.30;88.20;;;;;;5037735;28;20040;-37
2021/06/14 00:38:36;;;;;;;7.93;5.18;;;19.30;88.30;;;;;;5037020;28;20325;-40
2021/06/14 00:41:03;;;;;;;6.72;5.47;;;19.30;88.40;;;;;;5037566;28;20033;-37
2021/06/14 00:43:29;;;;;;;9.02;5.95;;;19.30;88.40;;;;;;5037190;28;20430;-39
2021/06/14 00:45:55;;;;;;;6.75;5.35;;;19.30;88.40;;;;;;5037355;28;20128;-40
2021/06/14 00:48:21;;;;;;;5.50;4.95;;;19.30;88.40;;;;;;5036974;28;20021;-40
2021/06/14 00:50:56;;;;;;;6.07;4.95;;;19.30;88.30;;;;;;5037439;28;20374;-41
2021/06/14 00:53:36;;;;;;;5.55;4.57;;;19.30;88.40;;;;;;5037108;28;20017;-37
2021/06/14 00:56:05;;;;;;;9.35;4.35;;;19.30;88.10;;;;;;5037264;28;20045;-39
2021/06/14 00:58:31;;;;;;;6.10;4.85;;;19.30;88.40;;;;;;5036627;28;20084;-37
2021/06/14 01:00:57;;;;;;;7.03;5.00;;;19.30;88.40;;;;;;5036879;28;20326;-37
2021/06/14 01:03:23;;;;;;;6.80;4.93;;;19.30;88.50;;;;;;5036806;28;20033;-39
2021/06/14 01:06:02;;;;;;;7.30;5.72;;;19.30;88.50;;;;;;5036941;28;20083;-37
2021/06/14 01:08:31;;;;;;;6.85;5.70;;;19.30;88.60;;;;;;5036653;28;20029;-40
2021/06/14 01:10:58;;;;;;;11.05;6.13;;;19.30;88.70;;;;;;5036842;28;20099;-40
2021/06/14 01:13:46;;;;;;;7.88;5.50;;;19.30;88.80;;;;;;5036410;28;20025;-39
2021/06/14 01:16:31;;;;;;;8.43;5.97;;;19.30;88.90;;;;;;5037009;28;20037;-37
2021/06/14 01:19:11;;;;;;;8.25;6.07;;;19.30;89.70;;;;;;5036347;28;20041;-40
2021/06/14 01:22:05;;;;;;;9.27;6.07;;;19.30;89.60;;;;;;5036609;28;20037;-39
2021/06/14 01:24:50;;;;;;;9.30;5.82;;;19.30;88.90;;;;;;5036309;28;20311;-40
2021/06/14 01:27:34;;;;;;;7.97;5.20;;;19.30;88.80;;;;;;5036213;28;20060;-39
2021/06/14 01:30:00;;;;;;;7.70;5.57;;;19.30;89.10;;;;;;5036460;28;20025;-37
2021/06/14 01:32:26;;;;;;;6.57;5.20;;;19.30;88.90;;;;;;5036460;28;20041;-37
2021/06/14 01:34:52;;;;;;;8.07;5.38;;;19.30;89.10;;;;;;5036167;28;20083;-40
2021/06/14 01:37:19;;;;;;;8.07;5.65;;;19.30;89.80;;;;;;5036324;28;20029;-37
2021/06/14 01:39:47;;;;;;;8.00;5.22;;;19.30;89.20;;;;;;5036323;28;20025;-37
2021/06/14 01:42:15;;;;;;;6.85;5.00;;;19.30;89.20;;;;;;5036220;28;20064;-37
2021/06/14 01:44:44;;;;;;;5.38;4.68;;;19.30;89.20;;;;;;5052143;28;20079;-38
2021/06/14 01:47:12;;;;;;;6.90;5.30;;;19.30;89.10;;;;;;5036082;28;20079;-37
2021/06/14 01:49:38;;;;;;;6.15;4.50;;;19.30;89.20;;;;;;5036012;28;20022;-37
2021/06/14 01:52:04;;;;;;;6.15;5.03;;;19.30;89.20;;;;;;5035700;28;20040;-39
2021/06/14 01:54:30;;;;;;;5.85;4.65;;;19.30;89.20;;;;;;5036083;28;20033;-37
2021/06/14 01:56:57;;;;;;;7.88;4.80;;;19.30;89.20;;;;;;5035999;28;20119;-37
2021/06/14 01:59:33;;;;;;;8.35;5.78;;;19.30;89.20;;;;;;5036287;28;20406;-39
2021/06/14 02:01:59;;;;;;;6.80;5.35;;;19.30;89.00;;;;;;5035916;28;20034;-39
2021/06/14 02:04:25;;;;;;;6.55;4.60;;;19.30;89.00;;;;;;5035792;28;20024;-37
2021/06/14 02:06:54;;;;;;;6.18;5.05;;;19.30;88.90;;;;;;5035767;28;20038;-40
2021/06/14 02:09:22;;;;;;;7.38;5.55;;;19.40;89.00;;;;;;5035997;28;20102;-38
2021/06/14 02:11:54;;;;;;;5.30;4.45;;;19.40;88.90;;;;;;5035297;28;20037;-40
2021/06/14 02:14:24;;;;;;;11.38;5.18;;;19.30;88.60;;;;;;5036179;28;20410;-39
2021/06/14 02:16:52;;;;;;;5.00;4.18;;;19.30;88.60;;;;;;5035698;28;20114;-39
2021/06/14 02:19:18;;;;;;;6.80;4.63;;;19.30;88.50;;;;;;5035511;28;20076;-37
2021/06/14 02:21:46;;;;;;;8.93;4.70;;;19.40;88.60;;;;;;5035720;28;20372;-37
2021/06/14 02:24:12;;;;;;;4.65;4.03;;;19.40;88.80;;;;;;5035680;28;20372;-39
2021/06/14 02:26:40;;;;;;;7.07;4.55;;;19.40;88.80;;;;;;5035637;28;20033;-39
2021/06/14 02:29:07;;;;;;;5.10;4.28;;;19.40;89.00;;;;;;5035505;28;20072;-37
2021/06/14 02:31:34;;;;;;;5.03;4.45;;;19.40;89.00;;;;;;5035486;28;20037;-37
2021/06/14 02:34:01;;;;;;;5.80;4.43;;;19.40;88.80;;;;;;5035830;28;20034;-37
2021/06/14 02:36:27;;;;;;;5.50;4.55;;;19.40;88.90;;;;;;5035695;28;20049;-37
2021/06/14 02:38:53;;;;;;;5.35;4.22;;;19.40;88.90;;;;;;5035291;28;20026;-37
2021/06/14 02:41:20;;;;;;;6.20;4.45;;;19.50;88.80;;;;;;5035754;28;20092;-38
2021/06/14 02:43:48;;;;;;;6.80;5.57;;;19.50;88.80;;;;;;5035733;28;20021;-37
2021/06/14 02:46:14;;;;;;;7.10;4.93;;;19.50;88.70;;;;;;5035393;28;20091;-37
2021/06/14 02:48:41;;;;;;;7.38;4.60;;;19.50;88.50;;;;;;5035545;28;20059;-37
2021/06/14 02:51:07;;;;;;;6.05;4.60;;;19.50;88.30;;;;;;5035474;28;20044;-40
2021/06/14 02:53:35;;;;;;;6.32;4.43;;;19.50;88.10;;;;;;5035029;28;20021;-37
2021/06/14 02:56:08;;;;;;;10.75;5.82;;;19.50;88.00;;;;;;5035659;28;20331;-39
2021/06/14 02:58:38;;;;;;;10.73;5.38;;;19.50;87.70;;;;;;5035092;28;20053;-40
2021/06/14 03:01:05;;;;;;;7.85;5.00;;;19.50;87.60;;;;;;5035485;28;20034;-37
2021/06/14 03:03:31;;;;;;;9.45;5.07;;;19.50;87.80;;;;;;5035267;28;20036;-39
2021/06/14 03:05:58;;;;;;;14.30;7.57;;;19.50;87.70;;;;;;5034068;28;20034;-39
2021/06/14 03:08:25;;;;;;;12.45;7.03;;;19.50;87.70;;;;;;5035238;28;20035;-39
2021/06/14 03:10:53;;;;;;;13.15;7.18;;;19.50;87.80;;;;;;5035555;28;20033;-37
2021/06/14 03:13:19;;;;;;;7.78;5.22;;;19.50;87.70;;;;;;5035160;28;20338;-37
2021/06/14 03:15:44;;;;;;;9.10;4.95;;;19.50;87.70;;;;;;5035449;28;20117;-37
2021/06/14 03:18:11;;;;;;;7.10;4.03;;;19.50;87.70;;;;;;5034758;28;20377;-40
2021/06/14 03:20:40;;;;;;;6.75;4.80;;;19.50;87.50;;;;;;5035112;28;20125;-39
2021/06/14 03:23:07;;;;;;;4.85;4.00;;;19.50;87.40;;;;;;5035075;28;20040;-37
2021/06/14 03:25:33;;;;;;;5.47;4.25;;;19.50;87.40;;;;;;5037457;28;20121;-39
2021/06/14 03:27:59;;;;;;;4.90;4.13;;;19.50;87.40;;;;;;5038239;28;20441;-37
2021/06/14 03:30:27;;;;;;;5.25;4.20;;;19.50;87.40;;;;;;5038611;28;20048;-40
2021/06/14 03:32:53;;;;;;;5.05;3.75;;;19.50;87.40;;;;;;5038652;28;20317;-39
2021/06/14 03:35:21;;;;;;;5.68;4.75;;;19.50;87.60;;;;;;5038464;28;20044;-39
2021/06/14 03:37:48;;;;;;;4.55;4.00;;;19.50;87.50;;;;;;5038430;28;20017;-39
2021/06/14 03:40:15;;;;;;;5.22;4.35;;;19.60;87.70;;;;;;5038469;28;20032;-36
2021/06/14 03:42:41;;;;;;;6.63;4.68;;;19.60;87.70;;;;;;5038186;28;20421;-40
2021/06/14 03:45:10;;;;;;;6.00;4.78;;;19.60;87.80;;;;;;5038219;28;20043;-39
2021/06/14 03:47:36;;;;;;;5.38;4.57;;;19.60;87.50;;;;;;5037920;28;20032;-37
2021/06/14 03:50:04;;;;;;;6.32;4.68;;;19.70;87.50;;;;;;5038154;28;20029;-38
2021/06/14 03:52:29;;;;;;;5.85;4.45;;;19.70;87.30;;;;;;5038417;28;20033;-38
2021/06/14 03:54:55;;;;;;;5.22;4.30;;;19.70;87.20;;;;;;5053662;28;20032;-41
2021/06/14 03:57:21;;;;;;;6.22;5.20;;;19.80;87.20;;;;;;5038062;28;20061;-38
2021/06/14 03:59:47;;;;;;;7.22;4.53;;;19.80;87.20;;;;;;5038169;28;20053;-40
2021/06/14 04:02:12;;;;;;;6.03;4.40;;;19.90;87.10;;;;;;5038195;28;20080;-38
2021/06/14 04:04:54;;;;;;;5.50;4.80;;;19.90;87.30;;;;;;5038086;28;20029;-38
2021/06/14 04:07:19;;;;;;;8.25;4.70;;;19.90;87.70;;;;;;5037769;28;20369;-38
2021/06/14 04:09:45;;;;;;;6.38;4.55;;;20.00;87.20;;;;;;5037842;28;20037;-35
2021/06/14 04:12:12;;;;;;;7.50;5.30;;;20.10;87.10;;;;;;5037827;28;20397;-37
2021/06/14 04:14:40;;;;;;;6.65;5.40;;;20.10;86.90;;;;;;5038267;28;20029;-36
2021/06/14 04:17:06;;;;;;;8.05;5.43;;;20.20;86.70;;;;;;5037900;28;20025;-35
2021/06/14 04:19:32;;;;;;;6.75;5.13;;;20.20;86.50;;;;;;5037545;28;20060;-35
2021/06/14 04:21:58;;;;;;;9.48;4.93;;;20.30;86.90;;;;;;5037713;28;20033;-35
2021/06/14 04:24:24;;;;;;;6.78;4.80;;;20.30;86.20;;;;;;5037693;28;20469;-37
2021/06/14 04:26:49;;;;;;;6.38;4.70;;;20.30;85.90;;;;;;5037545;28;20041;-37
2021/06/14 04:29:15;;;;;;;6.35;5.00;;;20.40;85.80;;;;;;5037353;28;20325;-35
2021/06/14 04:31:41;;;;;;;6.25;4.82;;;20.40;85.70;;;;;;5037360;28;20033;-37
2021/06/14 04:34:07;;;;;;;6.75;5.20;;;20.40;85.70;;;;;;5037404;28;20021;-38
2021/06/14 04:36:33;;;;;;;15.75;7.85;;;20.40;85.40;;;;;;5035972;28;20044;-38
2021/06/14 04:38:58;;;;;;;5.63;5.03;;;20.40;85.30;;;;;;5037078;28;20467;-37
2021/06/14 04:41:24;;;;;;;9.48;6.32;;;20.50;85.50;;;;;;5037156;28;20038;-35
2021/06/14 04:43:50;;;;;;;7.45;5.97;;;20.50;86.30;;;;;;5037548;28;20060;-36
2021/06/14 04:46:15;;;;;;;7.63;5.53;;;20.50;85.60;;;;;;5037171;28;20037;-37
2021/06/14 04:48:41;;;;;;;7.13;4.97;;;20.60;85.40;;;;;;5036763;28;20036;-38
2021/06/14 04:51:07;;;;;;;7.30;4.38;;;20.60;85.40;;;;;;5037202;28;20128;-35
2021/06/14 04:53:32;;;;;;;7.50;4.97;;;20.60;85.20;;;;;;5036843;28;20021;-38
2021/06/14 04:55:58;;;;;;;11.68;5.47;;;20.70;85.40;;;;;;5036936;28;20451;-35
2021/06/14 04:58:24;;;;;;;8.77;5.82;;;20.70;85.10;;;;;;5036457;28;20022;-37
2021/06/14 05:00:49;;;;;;;9.45;5.78;;;20.70;85.10;;;;;;5036974;28;20171;-38
2021/06/14 05:03:15;;;;;;;8.02;6.03;;;20.80;85.00;;;;;;5051835;28;20021;-36
2021/06/14 05:05:42;;;;;;;8.55;5.68;;;20.80;84.40;;;;;;5036813;28;20029;-35
2021/06/14 05:08:08;;;;;;;9.50;5.60;;;20.90;84.30;;;;;;5036386;28;20025;-37
2021/06/14 05:10:34;;;;;;;7.43;5.15;;;20.90;84.30;;;;;;5035692;28;20055;-38
2021/06/14 05:12:59;;;;;;;7.28;5.90;;;20.90;84.10;;;;;;5036327;28;20026;-38
2021/06/14 05:15:25;;;;;;;8.38;6.15;;;21.00;84.30;;;;;;5036738;28;20475;-38
2021/06/14 05:17:51;;;;;;;10.38;5.93;;;21.00;84.40;;;;;;5035863;28;20021;-35
2021/06/14 05:20:17;;;;;;;8.93;5.72;;;21.10;84.50;;;;;;5035898;28;20037;-35
2021/06/14 05:22:44;;;;;;;7.72;5.80;;;21.20;84.30;;;;;;5036217;28;20092;-37
2021/06/14 05:25:11;;;;;;;7.63;5.68;;;21.20;84.50;;;;;;5036465;28;20345;-35
2021/06/14 05:27:37;;;;;;;7.95;6.15;;;21.30;84.80;;;;;;5035477;28;20443;-38
2021/06/14 05:30:04;;;;;;;10.25;6.35;;;21.40;84.80;;;;;;5034700;28;20033;-35
2021/06/14 05:32:31;;;;;;;8.55;5.25;;;21.40;84.40;;;;;;5034839;28;20108;-35
2021/06/14 05:34:58;;;;;;;8.40;5.40;;;21.50;84.80;;;;;;5036101;28;20348;-35
2021/06/14 05:37:23;;;;;;;9.50;6.22;;;21.50;83.80;;;;;;5033905;28;20029;-38
2021/06/14 05:39:49;;;;;;;6.43;5.10;;;21.60;83.40;;;;;;5035957;28;20325;-35
2021/06/14 05:42:15;;;;;;;6.38;5.38;;;21.60;82.90;;;;;;5035953;28;20033;-35
2021/06/14 05:44:40;;;;;;;11.18;6.55;;;21.60;82.70;;;;;;5036148;28;20034;-37
2021/06/14 05:47:06;;;;;;;7.80;6.22;;;21.70;82.70;;;;;;5034057;28;20030;-35
2021/06/14 05:49:32;;;;;;;10.75;7.20;;;21.70;82.80;;;;;;5035527;28;20059;-35
2021/06/14 05:51:59;;;;;;;8.27;6.50;;;21.80;83.10;;;;;;5035775;28;20076;-35
2021/06/14 05:54:25;;;;;;;9.27;7.07;;;21.80;82.50;;;;;;5035873;28;20409;-35
2021/06/14 05:56:51;;;;;;;7.72;5.78;;;21.90;81.70;;;;;;5035607;28;20083;-37
2021/06/14 05:59:16;;;;;;;8.52;6.78;;;21.90;81.80;;;;;;5035625;28;20025;-36
2021/06/14 06:01:42;;;;;;;9.15;6.20;;;21.90;81.60;;;;;;5035628;28;20116;-42
2021/06/14 06:04:07;;;;;;;8.90;6.60;;;21.90;81.40;;;;;;5035611;28;20057;-36
2021/06/14 06:06:33;;;;;;;13.23;6.40;;;21.90;81.40;;;;;;5035539;28;20041;-38
2021/06/14 06:08:59;;;;;;;9.70;6.55;;;22.00;81.60;;;;;;5034848;28;20116;-38
2021/06/14 06:11:25;;;;;;;10.40;6.90;;;22.00;81.60;;;;;;5035319;28;20120;-35
2021/06/14 06:13:50;;;;;;;8.77;7.10;;;22.10;81.70;;;;;;5035315;28;20025;-38
2021/06/14 06:16:16;;;;;;;9.25;7.88;;;22.10;81.50;;;;;;5031108;28;20029;-35
2021/06/14 06:18:42;;;;;;;13.32;8.30;;;22.20;81.30;;;;;;5034478;28;20076;-35
2021/06/14 06:21:07;;;;;;;14.55;8.23;;;22.20;80.90;;;;;;5034793;28;20053;-38
2021/06/14 06:23:33;;;;;;;10.90;7.80;;;22.20;80.60;;;;;;5034865;28;20025;-35
2021/06/14 06:25:59;;;;;;;19.13;14.63;;;22.30;80.60;;;;;;5035006;28;20038;-38
2021/06/14 06:28:25;;;;;;;10.68;7.57;;;22.30;81.00;;;;;;5034933;28;20425;-38
2021/06/14 06:30:50;;;;;;;12.93;9.07;;;22.30;80.80;;;;;;5034753;28;20052;-35
2021/06/14 06:33:16;;;;;;;12.38;8.48;;;22.40;80.90;;;;;;5034717;28;20018;-35
2021/06/14 06:35:42;;;;;;;8.95;7.40;;;22.40;80.50;;;;;;5034674;28;20358;-36
2021/06/14 06:38:07;;;;;;;12.40;9.30;;;22.40;80.50;;;;;;5034858;28;20025;-38
2021/06/14 06:40:33;;;;;;;15.00;9.43;;;22.50;80.30;;;;;;5034700;28;20087;-38
2021/06/14 06:42:59;;;;;;;13.00;8.63;;;22.50;80.50;;;;;;5035016;28;20036;-37
2021/06/14 06:45:25;;;;;;;15.05;9.43;;;22.60;80.40;;;;;;5035204;28;20025;-35
2021/06/14 06:47:52;;;;;;;10.95;8.27;;;22.60;80.10;;;;;;5034773;28;20026;-35
2021/06/14 06:50:18;;;;;;;11.85;8.10;;;22.60;80.10;;;;;;5034606;28;20104;-38
2021/06/14 06:52:44;;;;;;;15.43;8.95;;;22.70;80.10;;;;;;5034974;28;20021;-36
2021/06/14 06:55:12;;;;;;;12.32;8.45;;;22.70;79.90;;;;;;5024534;28;20018;-35
2021/06/14 06:57:38;;;;;;;25.98;16.60;;;22.70;79.80;;;;;;5034568;28;20080;-35
2021/06/14 07:00:07;;;;;;;18.77;14.00;;;22.80;79.70;;;;;;5035590;28;20431;-35
2021/06/14 07:02:33;;;;;;;12.70;10.05;;;22.80;79.50;;;;;;5038196;28;20318;-40
2021/06/14 07:04:58;;;;;;;36.45;23.45;;;22.80;79.50;;;;;;5038670;28;20076;-40
2021/06/14 07:07:24;;;;;;;48.35;31.85;;;22.90;79.50;;;;;;5038740;28;20376;-35
2021/06/14 07:09:50;;;;;;;23.98;15.25;;;22.90;79.70;;;;;;5038166;28;20399;-35
2021/06/14 07:12:15;;;;;;;22.42;17.42;;;23.00;79.30;;;;;;5038578;28;20034;-35
2021/06/14 07:14:41;;;;;;;37.42;30.00;;;23.00;78.90;;;;;;5036270;28;20057;-40
2021/06/14 07:17:07;;;;;;;17.88;12.57;;;23.10;78.50;;;;;;5037911;28;20108;-41
2021/06/14 07:19:33;;;;;;;12.90;10.20;;;23.10;78.30;;;;;;5037867;28;20433;-40
2021/06/14 07:21:58;;;;;;;25.77;19.15;;;23.20;78.10;;;;;;5038258;28;20045;-38
2021/06/14 07:24:24;;;;;;;28.10;18.35;;;23.20;77.70;;;;;;5037722;28;20126;-35
2021/06/14 07:26:50;;;;;;;24.27;16.13;;;23.20;77.70;;;;;;5037926;28;20075;-35
2021/06/14 07:29:15;;;;;;;26.17;17.63;;;23.30;77.50;;;;;;5038113;28;20025;-38
2021/06/14 07:31:41;;;;;;;28.80;17.00;;;23.30;76.80;;;;;;5037883;28;20176;-36
2021/06/14 07:34:08;;;;;;;12.90;9.90;;;23.40;76.80;;;;;;5036224;28;20029;-35
2021/06/14 07:36:34;;;;;;;13.68;10.35;;;23.40;76.20;;;;;;5035684;28;20036;-35
2021/06/14 07:39:00;;;;;;;24.38;20.48;;;23.40;76.40;;;;;;5037193;28;20113;-35
2021/06/14 07:41:26;;;;;;;11.77;10.10;;;23.50;76.10;;;;;;5033994;28;20037;-35
2021/06/14 07:43:52;;;;;;;15.00;13.02;;;23.50;76.00;;;;;;5037487;28;20033;-37
2021/06/14 07:46:19;;;;;;;17.23;13.00;;;23.60;76.20;;;;;;5028702;28;20033;-36
2021/06/14 07:48:44;;;;;;;15.05;10.55;;;23.60;75.20;;;;;;5028021;28;20025;-37
2021/06/14 07:51:10;;;;;;;17.73;11.82;;;23.60;75.40;;;;;;5036768;28;20048;-36
2021/06/14 07:53:36;;;;;;;20.35;17.20;;;23.70;74.90;;;;;;5032691;28;20037;-36
2021/06/14 07:56:03;;;;;;;13.25;10.77;;;23.70;75.20;;;;;;5028599;28;20025;-37
2021/06/14 07:58:29;;;;;;;22.25;12.63;;;23.70;75.10;;;;;;5031760;28;20037;-37
2021/06/14 08:00:55;;;;;;;15.27;11.98;;;23.80;74.10;;;;;;5024823;28;20026;-36
2021/06/14 08:03:23;;;;;;;13.82;10.57;;;23.80;73.80;;;;;;5025350;28;20066;-37
2021/06/14 08:05:49;;;;;;;12.63;9.25;;;23.80;73.60;;;;;;5037249;28;20041;-37
2021/06/14 08:08:15;;;;;;;14.25;11.20;;;23.90;74.20;;;;;;5035320;28;20459;-37
2021/06/14 08:10:45;;;;;;;12.20;8.80;;;23.90;73.70;;;;;;5037127;28;20037;-37
2021/06/14 08:13:11;;;;;;;15.07;10.20;;;23.90;73.40;;;;;;5036781;28;20029;-37
2021/06/14 08:15:38;;;;;;;15.65;11.82;;;23.90;73.20;;;;;;5021074;28;20041;-37
2021/06/14 08:18:32;;;;;;;14.25;11.45;;;24.00;73.30;;;;;;5036891;28;20056;-37
2021/06/14 08:26:25;;;;;;;10.48;8.95;;;24.10;73.00;;;;;;5035719;28;20384;-40
2021/06/14 08:28:52;;;;;;;14.85;9.50;;;24.10;72.60;;;;;;5037176;28;20025;-38
2021/06/14 08:31:18;;;;;;;10.25;8.55;;;24.10;72.40;;;;;;5036168;28;20116;-37
2021/06/14 08:33:44;;;;;;;13.52;8.55;;;24.10;72.30;;;;;;5036646;28;20123;-40
2021/06/14 08:36:10;;;;;;;12.00;8.05;;;24.20;72.30;;;;;;5036827;28;20029;-37
2021/06/14 08:38:36;;;;;;;11.38;8.35;;;24.20;72.40;;;;;;5036619;28;20102;-37
2021/06/14 08:41:02;;;;;;;18.77;13.65;;;24.20;71.90;;;;;;5036707;28;20037;-37
2021/06/14 08:43:28;;;;;;;15.82;13.57;;;24.30;71.50;;;;;;5036382;28;20029;-39
2021/06/14 08:45:56;;;;;;;12.52;10.27;;;24.30;71.20;;;;;;5036783;28;20037;-39
2021/06/14 08:48:23;;;;;;;12.15;8.32;;;24.30;71.20;;;;;;5036147;28;20033;-40
2021/06/14 08:50:49;;;;;;;11.23;8.55;;;24.30;71.40;;;;;;5035382;28;20069;-40
2021/06/14 08:53:14;;;;;;;18.83;9.50;;;24.40;71.20;;;;;;5035746;28;20063;-40
2021/06/14 08:55:40;;;;;;;12.52;8.82;;;24.40;71.40;;;;;;5036093;28;20056;-40
2021/06/14 08:58:07;;;;;;;14.73;10.88;;;24.50;71.60;;;;;;5032806;28;20061;-40
2021/06/14 09:00:34;;;;;;;14.65;8.25;;;24.50;70.90;;;;;;5033303;28;20090;-41
2021/06/14 09:03:00;;;;;;;14.82;7.40;;;24.60;70.50;;;;;;5036215;28;20410;-40
2021/06/14 09:05:27;;;;;;;17.02;11.18;;;24.60;70.50;;;;;;5035014;28;20120;-40
2021/06/14 09:08:00;;;;;;;12.73;7.55;;;24.70;70.20;;;;;;5035101;28;20030;-40
2021/06/14 09:10:32;;;;;;;11.73;8.55;;;24.70;69.60;;;;;;5034946;28;20044;-40
2021/06/14 09:13:18;;;;;;;13.18;8.88;;;24.80;69.50;;;;;;5035691;28;20020;-39
2021/06/14 09:15:46;;;;;;;9.73;6.88;;;24.80;69.40;;;;;;5035728;28;20401;-40
2021/06/14 09:18:23;;;;;;;10.77;7.70;;;24.80;68.80;;;;;;5051040;28;20045;-40
2021/06/14 09:21:21;;;;;;;12.65;8.98;;;24.90;68.60;;;;;;5034799;28;20043;-40
2021/06/14 09:23:51;;;;;;;8.68;7.00;;;25.00;68.50;;;;;;5000933;28;20033;-40
2021/06/14 09:26:44;;;;;;;10.32;5.70;;;25.10;68.10;;;;;;5035700;28;20048;-40
2021/06/14 09:29:13;;;;;;;9.55;6.60;;;25.20;67.60;;;;;;5028305;28;20037;-40
2021/06/14 09:31:51;;;;;;;9.32;7.82;;;25.20;67.50;;;;;;5035652;28;20068;-40
2021/06/14 09:34:18;;;;;;;14.30;8.02;;;25.30;67.20;;;;;;5034535;28;20048;-40
2021/06/14 09:36:59;;;;;;;9.52;5.40;;;25.40;67.10;;;;;;5035862;28;20060;-40
2021/06/14 09:39:25;;;;;;;9.48;6.28;;;25.50;66.80;;;;;;5034899;28;20120;-40
2021/06/14 09:41:52;;;;;;;11.63;6.82;;;25.50;66.90;;;;;;5035799;28;20109;-40
2021/06/14 09:44:29;;;;;;;10.13;7.35;;;25.60;66.50;;;;;;5033914;28;20092;-40
2021/06/14 09:47:03;;;;;;;6.82;6.10;;;25.60;65.60;;;;;;5028798;28;20091;-40
2021/06/14 09:49:28;;;;;;;11.80;7.45;;;25.60;65.30;;;;;;5029802;28;20032;-39
2021/06/14 09:51:54;;;;;;;9.02;5.97;;;25.60;65.40;;;;;;5031753;28;20112;-40
2021/06/14 09:54:31;;;;;;;6.80;4.82;;;25.70;65.20;;;;;;5035036;28;20398;-40
2021/06/14 09:57:00;;;;;;;10.40;4.97;;;25.70;64.70;;;;;;5033549;28;20029;-40
2021/06/14 09:59:34;;;;;;;9.07;5.78;;;25.70;65.00;;;;;;5027740;28;20033;-40
2021/06/14 10:02:19;;;;;;;9.60;5.60;;;25.70;64.60;;;;;;5035065;28;20413;-40
2021/06/14 10:04:53;;;;;;;10.55;5.38;;;25.80;64.30;;;;;;5035484;28;20034;-40
2021/06/14 10:07:20;;;;;;;6.63;4.22;;;25.80;64.20;;;;;;5034678;28;20033;-40
2021/06/14 10:09:50;;;;;;;7.18;5.78;;;25.90;64.60;;;;;;5035776;28;20025;-40
2021/06/14 10:12:25;;;;;;;5.15;4.55;;;25.90;64.20;;;;;;5030288;28;20329;-40
2021/06/14 10:14:56;;;;;;;7.72;4.78;;;26.00;63.60;;;;;;5035354;28;20425;-40
2021/06/14 10:17:34;;;;;;;6.07;4.88;;;26.10;63.80;;;;;;5034812;28;20037;-40
2021/06/14 10:20:12;;;;;;;6.35;4.90;;;26.20;63.20;;;;;;5015418;28;20049;-40
2021/06/14 10:22:38;;;;;;;14.75;12.60;;;26.30;63.40;;;;;;5027475;28;20029;-40
2021/06/14 10:25:07;;;;;;;8.75;7.30;;;26.40;63.40;;;;;;5034361;28;20022;-40
2021/06/14 10:27:33;;;;;;;8.48;5.82;;;26.40;63.10;;;;;;5032828;28;20083;-40
2021/06/14 10:30:00;;;;;;;8.23;5.97;;;26.50;62.80;;;;;;5035029;28;20025;-40
2021/06/14 10:32:27;;;;;;;7.55;5.57;;;26.60;62.40;;;;;;5034632;28;20041;-40
2021/06/14 10:34:54;;;;;;;6.40;4.65;;;26.70;62.00;;;;;;5036425;28;20420;-40
2021/06/14 10:37:21;;;;;;;8.75;4.90;;;26.70;61.90;;;;;;5039135;28;20033;-40
2021/06/14 10:39:52;;;;;;;7.75;4.90;;;26.80;62.00;;;;;;5039291;28;20026;-40
2021/06/14 10:42:18;;;;;;;6.60;5.13;;;26.90;61.60;;;;;;5037835;28;20072;-40
2021/06/14 10:44:44;;;;;;;7.63;5.15;;;27.00;61.60;;;;;;5038514;28;20026;-39
2021/06/14 10:47:10;;;;;;;6.75;4.72;;;27.00;61.00;;;;;;5038715;28;20038;-40
2021/06/14 10:49:36;;;;;;;24.20;15.85;;;27.10;60.70;;;;;;5047708;28;20490;-40
2021/06/14 10:52:04;;;;;;;16.20;11.85;;;27.10;60.30;;;;;;5058575;28;20102;-40
2021/06/14 10:54:44;;;;;;;22.55;20.20;;;27.20;60.10;;;;;;5058503;28;20029;-40
2021/06/14 10:57:12;;;;;;;27.65;24.63;;;27.20;59.80;;;;;;5058295;28;20036;-40
2021/06/14 10:59:40;;;;;;;26.20;22.88;;;27.30;60.00;;;;;;5040335;28;20065;-40
2021/06/14 11:02:08;;;;;;;22.77;20.30;;;27.30;59.30;;;;;;5039059;28;20076;-40
2021/06/14 11:04:34;;;;;;;9.85;8.25;;;27.40;59.20;;;;;;5039179;28;20317;-40
2021/06/14 11:07:01;;;;;;;20.13;15.45;;;27.40;58.80;;;;;;5035444;28;20029;-40
2021/06/14 11:09:56;;;;;;;20.55;18.38;;;27.40;58.80;;;;;;5039102;28;20076;-41
2021/06/14 11:12:25;;;;;;;14.82;13.20;;;27.50;59.00;;;;;;5019317;28;20056;-40
2021/06/14 11:14:51;;;;;;;23.55;20.33;;;27.60;58.70;;;;;;5038841;28;20313;-40
2021/06/14 11:17:32;;;;;;;18.25;16.17;;;27.70;58.30;;;;;;5038658;28;20092;-40
2021/06/14 11:20:01;;;;;;;11.75;8.15;;;27.80;58.10;;;;;;5040267;28;20143;-40
2021/06/14 11:22:39;;;;;;;10.20;8.45;;;27.90;56.40;;;;;;5058597;28;20044;-40
2021/06/14 11:25:18;;;;;;;12.52;10.13;;;28.00;57.10;;;;;;5046356;28;20024;-40
2021/06/14 11:27:44;;;;;;;12.27;11.02;;;28.10;57.30;;;;;;5038155;28;20025;-40
2021/06/14 11:30:17;;;;;;;18.77;14.48;;;28.20;57.40;;;;;;5038560;28;20100;-40
2021/06/14 11:32:43;;;;;;;17.52;14.48;;;28.30;56.60;;;;;;5038125;28;20131;-40
2021/06/14 11:35:09;;;;;;;18.67;16.10;;;28.40;56.50;;;;;;5038494;28;20473;-40
2021/06/14 11:37:38;;;;;;;18.67;16.40;;;28.60;56.50;;;;;;5038043;28;20405;-40
2021/06/14 11:40:06;;;;;;;21.15;18.95;;;28.70;56.10;;;;;;5038476;28;20025;-40
2021/06/14 11:42:53;;;;;;;15.82;12.98;;;28.80;55.80;;;;;;5046590;28;20428;-40
2021/06/14 11:45:41;;;;;;;16.67;15.02;;;29.00;55.90;;;;;;5036485;28;20045;-40
2021/06/14 11:48:19;;;;;;;14.93;13.20;;;29.10;55.10;;;;;;5037641;28;20109;-40
2021/06/14 11:50:45;;;;;;;15.85;14.23;;;29.20;54.40;;;;;;5038042;28;20034;-40
2021/06/14 11:53:11;;;;;;;8.13;7.22;;;29.40;54.30;;;;;;5036864;28;20320;-40
2021/06/14 11:55:40;;;;;;;14.32;12.27;;;29.50;53.80;;;;;;5038170;28;20321;-40
2021/06/14 11:58:08;;;;;;;13.25;10.85;;;29.60;53.50;;;;;;5037619;28;20049;-40
2021/06/14 12:00:36;;;;;;;17.08;14.95;;;29.80;53.20;;;;;;5037415;28;20384;-40
2021/06/14 12:03:15;;;;;;;11.68;10.30;;;29.90;52.40;;;;;;5027920;28;20034;-40
2021/06/14 12:05:41;;;;;;;8.63;7.50;;;29.90;52.40;;;;;;5037036;28;20075;-40
2021/06/14 12:08:09;;;;;;;10.80;9.70;;;29.80;52.50;;;;;;5037472;28;20029;-40
2021/06/14 12:10:36;;;;;;;14.88;13.15;;;29.80;52.50;;;;;;5037232;28;20037;-40
2021/06/14 12:13:06;;;;;;;12.50;10.95;;;29.70;52.70;;;;;;5037505;28;20033;-40
2021/06/14 12:15:33;;;;;;;13.23;11.88;;;29.60;52.70;;;;;;5037054;28;20096;-40
2021/06/14 12:17:59;;;;;;;6.90;5.63;;;29.50;52.70;;;;;;5037067;28;20124;-40
2021/06/14 12:20:27;;;;;;;6.68;4.38;;;29.40;52.60;;;;;;5036876;28;20029;-40
2021/06/14 12:23:01;;;;;;;7.82;3.47;;;29.40;53.10;;;;;;5037286;28;20040;-40
2021/06/14 12:25:28;;;;;;;19.75;5.25;;;29.40;52.80;;;;;;5027947;28;20026;-40
2021/06/14 12:28:03;;;;;;;12.88;4.72;;;29.50;52.80;;;;;;5016756;28;20038;-40
2021/06/14 12:30:29;;;;;;;4.68;3.00;;;29.70;52.00;;;;;;5031830;28;20144;-40
2021/06/14 12:32:55;;;;;;;12.27;8.70;;;29.80;52.20;;;;;;5056191;28;20104;-40
2021/06/14 12:35:22;;;;;;;11.65;8.75;;;30.00;51.70;;;;;;5056716;28;20029;-40
2021/06/14 12:37:49;;;;;;;3.97;3.55;;;30.20;51.50;;;;;;5056755;28;20058;-40
2021/06/14 12:40:21;;;;;;;6.95;5.03;;;30.30;51.10;;;;;;5036073;28;20375;-40
2021/06/14 12:43:13;;;;;;;8.35;6.32;;;30.50;50.90;;;;;;5036653;28;20037;-38
2021/06/14 12:45:41;;;;;;;6.55;5.35;;;30.70;50.70;;;;;;5034007;28;20034;-38
2021/06/14 12:48:12;;;;;;;12.77;5.15;;;30.90;50.00;;;;;;5035943;28;20079;-38
2021/06/14 12:50:51;;;;;;;6.00;3.45;;;31.10;48.30;;;;;;5036869;28;20345;-38
2021/06/14 12:53:19;;;;;;;11.05;6.88;;;31.30;47.90;;;;;;5036409;28;20385;-37